Time;durP1;ratioP1;P1;durP2;ratioP2;P2;SDS_P1;SDS_P2;PMS_P1;PMS_P2;Temp;Humidity;BMP_temperature;BMP_pressure;BME280_temperature;BME280_humidity;BME280_pressure;Samples;Min_cycle;Max_cycle;Signal;HPM_P1;HPM_P2
2023/06/19 00:00:33;;;;;;;10.20;9.20;;;21.30;94.80;;;;;;5009906;28;20053;-75
2023/06/19 00:02:59;;;;;;;10.57;9.48;;;21.30;94.80;;;;;;5028625;28;20041;-75
2023/06/19 00:05:25;;;;;;;10.50;9.55;;;21.20;94.70;;;;;;4992498;28;20548;-75
2023/06/19 00:07:51;;;;;;;10.48;9.50;;;21.30;94.40;;;;;;5027711;28;20053;-75
2023/06/19 00:10:17;;;;;;;10.52;9.50;;;21.30;94.10;;;;;;5041002;28;20421;-75
2023/06/19 00:12:43;;;;;;;10.50;9.43;;;21.30;93.90;;;;;;5011618;28;20041;-75
2023/06/19 00:15:09;;;;;;;10.65;9.43;;;21.30;93.80;;;;;;4993406;28;20040;-76
2023/06/19 00:17:37;;;;;;;10.50;9.48;;;21.30;93.30;;;;;;5012544;28;20044;-76
2023/06/19 00:20:05;;;;;;;10.00;9.00;;;21.30;92.60;;;;;;5030392;28;20119;-76
2023/06/19 00:22:31;;;;;;;10.13;9.13;;;21.40;92.50;;;;;;5028489;28;20048;-76
2023/06/19 00:24:57;;;;;;;10.15;9.25;;;21.40;92.40;;;;;;5030172;28;20045;-75
2023/06/19 00:27:24;;;;;;;10.52;9.55;;;21.40;92.20;;;;;;5027846;28;20459;-76
2023/06/19 00:29:51;;;;;;;11.70;9.55;;;21.50;91.50;;;;;;5030701;28;20037;-74
2023/06/19 00:32:17;;;;;;;10.18;9.18;;;21.50;91.30;;;;;;5028500;28;20497;-76
2023/06/19 00:34:43;;;;;;;9.55;8.57;;;21.60;90.70;;;;;;5046154;28;20067;-76
2023/06/19 00:37:09;;;;;;;10.10;9.20;;;21.60;90.80;;;;;;4997653;28;20051;-76
2023/06/19 00:39:35;;;;;;;12.75;9.85;;;21.60;90.60;;;;;;5028982;28;20048;-76
2023/06/19 00:42:01;;;;;;;9.73;8.75;;;21.60;90.50;;;;;;5028004;28;20044;-76
2023/06/19 00:44:27;;;;;;;9.50;8.63;;;21.60;90.10;;;;;;5021933;28;20052;-76
2023/06/19 00:46:58;;;;;;;9.57;8.57;;;21.70;89.60;;;;;;5010426;28;20536;-76
2023/06/19 00:49:25;;;;;;;9.65;8.50;;;21.70;89.50;;;;;;4990081;28;20076;-76
2023/06/19 00:51:52;;;;;;;8.73;7.88;;;21.70;89.10;;;;;;4995978;28;20179;-76
2023/06/19 00:54:18;;;;;;;9.50;8.32;;;21.70;88.10;;;;;;5011921;28;20048;-76
2023/06/19 00:56:44;;;;;;;10.43;8.95;;;21.80;87.70;;;;;;5010583;28;20048;-77
2023/06/19 00:59:19;;;;;;;9.95;9.00;;;21.80;87.80;;;;;;5025817;28;20053;-76
2023/06/19 01:01:45;;;;;;;9.98;8.43;;;21.80;87.70;;;;;;5030652;28;20082;-82
2023/06/19 01:04:12;;;;;;;9.38;8.57;;;21.80;87.60;;;;;;5028054;28;20067;-83
2023/06/19 01:06:50;;;;;;;9.27;8.38;;;21.80;87.40;;;;;;5023923;28;20036;-81
2023/06/19 01:09:18;;;;;;;9.23;8.32;;;21.80;87.70;;;;;;5023794;28;20048;-82
2023/06/19 01:11:50;;;;;;;9.57;8.68;;;21.70;87.50;;;;;;5025815;28;20139;-82
2023/06/19 01:14:23;;;;;;;9.73;8.82;;;21.70;87.10;;;;;;5008950;28;20049;-83
2023/06/19 01:16:49;;;;;;;9.82;8.65;;;21.80;87.30;;;;;;5025841;28;20044;-82
2023/06/19 01:19:20;;;;;;;9.55;8.57;;;21.70;87.40;;;;;;5010632;28;20132;-83
2023/06/19 01:21:49;;;;;;;9.23;8.32;;;21.70;87.50;;;;;;5023697;28;20512;-82
2023/06/19 01:24:15;;;;;;;9.90;8.90;;;21.70;87.70;;;;;;5026583;28;20081;-82
2023/06/19 01:26:45;;;;;;;9.43;8.43;;;21.70;87.60;;;;;;5009330;28;20130;-82
2023/06/19 01:29:13;;;;;;;9.88;8.65;;;21.70;87.10;;;;;;5018342;28;20049;-82
2023/06/19 01:31:56;;;;;;;9.73;8.82;;;21.60;87.10;;;;;;5026592;28;20529;-82
2023/06/19 01:34:25;;;;;;;9.85;8.60;;;21.70;87.00;;;;;;5022599;28;20052;-83
2023/06/19 01:36:52;;;;;;;9.88;8.95;;;21.60;86.60;;;;;;5030722;28;20073;-83
2023/06/19 01:39:19;;;;;;;9.75;8.75;;;21.70;86.70;;;;;;4987945;28;20041;-82
2023/06/19 01:41:51;;;;;;;9.60;8.60;;;21.70;86.40;;;;;;4992363;28;20033;-81
2023/06/19 01:44:17;;;;;;;9.25;8.43;;;21.70;86.40;;;;;;5023435;28;20045;-82
2023/06/19 01:46:46;;;;;;;9.77;8.80;;;21.70;86.70;;;;;;5042931;28;20033;-82
2023/06/19 01:49:12;;;;;;;9.65;8.65;;;21.70;86.90;;;;;;5013616;28;20045;-82
2023/06/19 01:51:38;;;;;;;9.38;8.43;;;21.60;87.80;;;;;;4992232;28;20433;-82
2023/06/19 01:54:04;;;;;;;9.75;8.85;;;21.60;88.50;;;;;;5022527;28;20497;-82
2023/06/19 01:56:30;;;;;;;9.15;8.25;;;21.60;88.50;;;;;;5008967;28;20504;-82
2023/06/19 01:58:59;;;;;;;9.30;8.35;;;21.60;88.40;;;;;;4992288;28;20037;-82
2023/06/19 02:01:25;;;;;;;9.50;8.60;;;21.60;88.40;;;;;;5040188;28;20045;-82
2023/06/19 02:03:51;;;;;;;9.40;8.50;;;21.60;88.30;;;;;;4993258;28;20077;-82
2023/06/19 02:06:16;;;;;;;9.48;8.57;;;21.60;88.40;;;;;;5010011;28;20500;-82
2023/06/19 02:08:42;;;;;;;10.13;9.20;;;21.60;89.40;;;;;;5030868;28;20047;-82
2023/06/19 02:11:08;;;;;;;10.05;9.13;;;21.50;89.30;;;;;;5026159;28;20088;-82
2023/06/19 02:13:34;;;;;;;9.98;8.50;;;21.50;90.00;;;;;;5028276;28;20057;-82
2023/06/19 02:15:59;;;;;;;9.20;8.30;;;21.50;90.30;;;;;;5029361;28;20596;-76
2023/06/19 02:18:25;;;;;;;9.25;8.38;;;21.50;90.10;;;;;;4978475;28;20066;-76
2023/06/19 02:20:51;;;;;;;10.15;9.15;;;21.40;90.10;;;;;;5020799;28;20035;-75
2023/06/19 02:23:19;;;;;;;9.73;8.82;;;21.40;90.00;;;;;;5037431;28;20041;-76
2023/06/19 02:25:45;;;;;;;9.48;8.68;;;21.40;89.90;;;;;;5002490;28;20040;-76
2023/06/19 02:28:13;;;;;;;10.20;9.15;;;21.40;89.80;;;;;;5010853;28;20041;-76
2023/06/19 02:30:39;;;;;;;10.52;8.90;;;21.40;89.80;;;;;;5002473;28;20056;-76
2023/06/19 02:33:05;;;;;;;9.65;8.63;;;21.40;89.70;;;;;;5023832;28;20125;-76
2023/06/19 02:35:34;;;;;;;9.65;8.77;;;21.50;89.90;;;;;;5042076;28;20148;-75
2023/06/19 02:38:00;;;;;;;9.23;8.20;;;21.50;90.00;;;;;;5019777;28;20041;-76
2023/06/19 02:40:25;;;;;;;10.45;9.43;;;21.50;90.00;;;;;;5035542;28;20045;-76
2023/06/19 02:42:51;;;;;;;10.10;9.10;;;21.50;89.80;;;;;;5030385;28;20052;-76
2023/06/19 02:45:17;;;;;;;9.30;8.40;;;21.60;89.70;;;;;;5027006;28;20052;-76
2023/06/19 02:47:43;;;;;;;9.32;8.50;;;21.60;89.60;;;;;;5010712;28;20081;-76
2023/06/19 02:50:09;;;;;;;9.75;8.77;;;21.60;89.80;;;;;;5027395;28;20049;-76
2023/06/19 02:52:35;;;;;;;9.60;8.70;;;21.60;89.90;;;;;;4991865;28;20028;-76
2023/06/19 02:55:00;;;;;;;10.45;9.35;;;21.60;90.40;;;;;;5010943;28;20393;-76
2023/06/19 02:57:26;;;;;;;10.05;8.98;;;21.60;90.20;;;;;;5027297;28;20049;-76
2023/06/19 02:59:52;;;;;;;9.48;8.48;;;21.60;90.30;;;;;;4993419;28;20362;-75
2023/06/19 03:02:18;;;;;;;9.38;8.48;;;21.60;90.30;;;;;;4992107;28;20123;-76
2023/06/19 03:04:44;;;;;;;9.75;8.85;;;21.60;90.60;;;;;;5041803;28;20568;-76
2023/06/19 03:07:10;;;;;;;10.55;9.23;;;21.60;90.80;;;;;;5026688;28;20135;-76
2023/06/19 03:09:36;;;;;;;10.30;8.88;;;21.60;91.00;;;;;;5022475;28;20053;-76
2023/06/19 03:12:02;;;;;;;9.70;8.52;;;21.60;91.10;;;;;;5006765;28;20037;-76
2023/06/19 03:14:28;;;;;;;9.07;8.18;;;21.60;91.30;;;;;;5006187;28;20041;-76
2023/06/19 03:16:53;;;;;;;9.10;8.20;;;21.60;91.50;;;;;;5008547;28;20118;-76
2023/06/19 03:19:19;;;;;;;10.43;8.55;;;21.60;91.60;;;;;;5001786;28;20132;-76
2023/06/19 03:21:45;;;;;;;9.27;8.38;;;21.60;91.80;;;;;;5008664;28;20075;-76
2023/06/19 03:24:11;;;;;;;9.40;8.52;;;21.60;92.00;;;;;;4990596;28;20053;-75
2023/06/19 03:26:36;;;;;;;8.85;7.95;;;21.60;92.30;;;;;;5003367;28;20045;-75
2023/06/19 03:29:02;;;;;;;9.13;8.23;;;21.60;92.60;;;;;;5003544;28;20052;-75
2023/06/19 03:31:28;;;;;;;14.45;8.05;;;21.60;92.90;;;;;;5009988;28;20049;-76
2023/06/19 03:33:54;;;;;;;8.80;7.88;;;21.60;93.30;;;;;;5023412;28;20041;-76
2023/06/19 03:36:20;;;;;;;8.77;7.38;;;21.60;93.60;;;;;;4984318;28;20058;-75
2023/06/19 03:38:47;;;;;;;8.00;7.10;;;21.70;93.80;;;;;;5005308;28;20033;-75
2023/06/19 03:41:13;;;;;;;7.03;5.85;;;21.70;94.00;;;;;;4981667;28;20048;-76
2023/06/19 03:43:42;;;;;;;8.80;6.45;;;21.70;94.30;;;;;;4995529;28;20045;-75
2023/06/19 03:46:14;;;;;;;6.82;6.13;;;21.70;94.70;;;;;;5008490;28;20041;-76
2023/06/19 03:48:39;;;;;;;6.38;5.63;;;21.60;94.90;;;;;;5005523;28;20701;-76
2023/06/19 03:51:05;;;;;;;6.00;5.00;;;21.60;95.40;;;;;;4994297;28;20076;-76
2023/06/19 03:53:31;;;;;;;5.88;4.68;;;21.50;95.90;;;;;;4999702;28;20060;-75
2023/06/19 03:55:59;;;;;;;7.38;5.22;;;21.50;96.40;;;;;;5014919;28;20053;-75
2023/06/19 03:58:25;;;;;;;5.70;4.85;;;21.50;96.70;;;;;;5002240;28;20099;-77
2023/06/19 04:00:51;;;;;;;6.13;4.50;;;21.50;97.10;;;;;;5025862;28;20299;-75
2023/06/19 04:03:17;;;;;;;6.60;4.80;;;21.40;97.50;;;;;;4993198;28;20077;-76
2023/06/19 04:05:43;;;;;;;5.53;4.85;;;21.40;97.90;;;;;;5010571;28;20030;-76
2023/06/19 04:08:08;;;;;;;5.47;4.88;;;21.30;98.20;;;;;;5013490;28;20056;-75
2023/06/19 04:10:34;;;;;;;6.18;4.95;;;21.30;98.60;;;;;;5022707;28;20053;-76
2023/06/19 04:13:00;;;;;;;7.95;5.32;;;21.20;99.10;;;;;;5009655;28;20099;-76
2023/06/19 04:15:26;;;;;;;5.10;4.60;;;21.20;99.40;;;;;;5021690;28;20504;-76
2023/06/19 04:17:51;;;;;;;7.47;5.15;;;21.20;99.60;;;;;;4991623;28;20064;-76
2023/06/19 04:20:17;;;;;;;6.13;4.65;;;21.10;99.90;;;;;;5026527;28;20046;-76
2023/06/19 04:22:43;;;;;;;6.63;4.35;;;21.10;99.90;;;;;;5026429;28;20045;-75
2023/06/19 04:25:12;;;;;;;6.93;4.20;;;21.00;99.90;;;;;;5009845;28;20041;-76
2023/06/19 04:27:39;;;;;;;6.53;4.75;;;21.00;99.90;;;;;;4991814;28;20056;-75
2023/06/19 04:30:06;;;;;;;6.82;5.00;;;21.00;99.90;;;;;;5007607;28;20038;-75
2023/06/19 04:32:32;;;;;;;7.38;4.95;;;20.90;99.90;;;;;;4972739;28;20124;-76
2023/06/19 04:34:58;;;;;;;5.95;5.15;;;20.90;99.90;;;;;;5010973;28;20056;-75
2023/06/19 04:37:24;;;;;;;5.97;4.65;;;20.90;99.90;;;;;;5023959;28;20049;-75
2023/06/19 04:39:50;;;;;;;8.27;5.05;;;20.90;99.90;;;;;;5012761;28;20045;-76
2023/06/19 04:42:20;;;;;;;9.35;5.30;;;20.90;99.90;;;;;;5045166;28;20034;-76
2023/06/19 04:44:49;;;;;;;5.20;4.53;;;20.90;99.90;;;;;;5028605;28;20321;-75
2023/06/19 04:47:20;;;;;;;7.53;5.07;;;20.80;99.90;;;;;;5011838;28;20045;-75
2023/06/19 04:49:46;;;;;;;5.85;5.00;;;20.80;99.90;;;;;;5023541;28;20050;-76
2023/06/19 04:52:15;;;;;;;5.65;4.18;;;20.80;99.90;;;;;;5029273;28;20037;-75
2023/06/19 04:54:41;;;;;;;5.93;4.50;;;20.80;99.90;;;;;;5040648;28;20485;-75
2023/06/19 04:57:10;;;;;;;7.28;4.68;;;20.80;99.90;;;;;;5010775;28;20099;-76
2023/06/19 04:59:36;;;;;;;5.90;4.70;;;20.70;99.90;;;;;;5003619;28;20060;-75
2023/06/19 05:02:02;;;;;;;5.45;4.28;;;20.80;99.90;;;;;;5028174;28;20041;-75
2023/06/19 05:04:32;;;;;;;5.82;4.35;;;20.70;99.90;;;;;;5026252;28;20048;-76
2023/06/19 05:06:58;;;;;;;6.45;4.68;;;20.70;99.90;;;;;;5012011;28;20512;-76
2023/06/19 05:09:24;;;;;;;5.32;4.57;;;20.70;99.90;;;;;;5008001;28;20041;-76
2023/06/19 05:11:50;;;;;;;5.57;4.97;;;20.70;99.90;;;;;;4990499;28;20174;-75
2023/06/19 05:14:16;;;;;;;5.80;4.93;;;20.70;99.90;;;;;;5007859;28;20030;-75
2023/06/19 05:16:45;;;;;;;7.15;4.80;;;20.70;99.90;;;;;;5022448;28;20151;-75
2023/06/19 05:19:11;;;;;;;6.45;4.60;;;20.70;99.90;;;;;;5013449;28;20068;-75
2023/06/19 05:21:37;;;;;;;6.53;4.47;;;20.70;99.90;;;;;;5021126;28;20049;-75
2023/06/19 05:24:03;;;;;;;7.65;5.47;;;20.70;99.90;;;;;;5022936;28;20094;-75
2023/06/19 05:26:28;;;;;;;9.45;5.10;;;20.70;99.90;;;;;;5017142;28;20045;-76
2023/06/19 05:28:54;;;;;;;8.68;5.45;;;20.80;99.90;;;;;;5009474;28;20041;-75
2023/06/19 05:31:20;;;;;;;7.30;4.72;;;20.80;99.90;;;;;;5008327;28;20045;-76
2023/06/19 05:33:46;;;;;;;9.38;5.32;;;20.90;99.90;;;;;;5024755;28;20041;-76
2023/06/19 05:36:14;;;;;;;6.40;5.38;;;20.80;99.90;;;;;;5009784;28;20510;-75
2023/06/19 05:38:40;;;;;;;5.40;4.90;;;20.90;99.90;;;;;;4987505;28;20088;-75
2023/06/19 05:41:06;;;;;;;7.35;5.25;;;20.80;99.90;;;;;;4989568;28;20037;-76
2023/06/19 05:43:32;;;;;;;6.88;5.22;;;20.80;99.90;;;;;;5005720;28;20045;-75
2023/06/19 05:46:02;;;;;;;6.30;4.97;;;20.80;99.90;;;;;;5004283;28;20055;-76
2023/06/19 05:48:28;;;;;;;7.45;4.88;;;20.80;99.90;;;;;;4987609;28;20045;-75
2023/06/19 05:50:54;;;;;;;6.03;5.30;;;20.90;99.90;;;;;;4986076;28;20056;-75
2023/06/19 05:53:20;;;;;;;7.05;5.70;;;20.90;99.90;;;;;;4989813;28;20049;-74
2023/06/19 05:55:45;;;;;;;7.63;5.68;;;20.80;99.90;;;;;;4987030;28;20049;-72
2023/06/19 05:58:14;;;;;;;6.78;6.07;;;20.90;99.90;;;;;;4970878;28;20034;-72
2023/06/19 06:00:40;;;;;;;7.13;5.97;;;20.90;99.90;;;;;;4998821;28;20056;-73
2023/06/19 06:03:06;;;;;;;7.07;5.75;;;20.90;99.90;;;;;;4987701;28;20296;-72
2023/06/19 06:05:32;;;;;;;6.35;5.70;;;20.90;99.90;;;;;;4987159;28;20060;-72
2023/06/19 06:07:57;;;;;;;6.25;5.65;;;20.90;99.90;;;;;;4985267;28;20042;-72
2023/06/19 06:10:25;;;;;;;6.70;5.30;;;21.00;99.90;;;;;;5003262;28;20057;-72
2023/06/19 06:12:51;;;;;;;6.30;5.57;;;20.90;99.90;;;;;;5002657;28;20045;-72
2023/06/19 06:15:17;;;;;;;6.75;6.15;;;20.90;99.90;;;;;;5006992;28;20044;-73
2023/06/19 06:17:43;;;;;;;12.32;5.80;;;20.90;99.90;;;;;;5003172;28;20468;-71
2023/06/19 06:20:12;;;;;;;7.57;6.22;;;20.90;99.90;;;;;;5003394;28;20033;-72
2023/06/19 06:22:42;;;;;;;9.03;6.00;;;20.90;99.90;;;;;;4999321;28;20057;-72
2023/06/19 06:25:10;;;;;;;6.70;6.03;;;20.90;99.90;;;;;;5006671;28;20303;-72
2023/06/19 06:27:36;;;;;;;7.45;6.45;;;20.90;99.90;;;;;;5003923;28;20053;-72
2023/06/19 06:30:02;;;;;;;9.05;7.15;;;20.90;99.90;;;;;;5003996;28;20786;-73
2023/06/19 06:32:30;;;;;;;9.32;8.05;;;20.90;99.90;;;;;;5007774;28;20056;-72
2023/06/19 06:34:57;;;;;;;10.95;9.88;;;20.90;99.90;;;;;;4990907;28;20053;-72
2023/06/19 06:37:22;;;;;;;11.32;10.13;;;20.80;99.90;;;;;;5025791;28;20044;-72
2023/06/19 06:39:49;;;;;;;13.38;12.20;;;20.80;99.90;;;;;;4989927;28;20046;-72
2023/06/19 06:42:16;;;;;;;15.48;13.80;;;20.80;99.90;;;;;;5006025;28;20481;-72
2023/06/19 06:44:44;;;;;;;15.77;14.38;;;20.80;99.90;;;;;;5009678;28;20048;-72
2023/06/19 06:47:10;;;;;;;16.50;14.90;;;20.70;99.90;;;;;;5000103;28;20048;-73
2023/06/19 06:49:36;;;;;;;16.27;14.82;;;20.70;99.90;;;;;;5019006;28;20560;-71
2023/06/19 06:52:03;;;;;;;18.13;16.33;;;20.70;99.90;;;;;;5019838;28;20060;-71
2023/06/19 06:54:35;;;;;;;20.38;18.40;;;20.70;99.90;;;;;;5017093;28;20150;-73
2023/06/19 06:57:01;;;;;;;19.73;17.92;;;20.70;99.90;;;;;;5024589;28;20709;-71
2023/06/19 06:59:27;;;;;;;21.13;19.23;;;20.60;99.90;;;;;;5027852;28;20041;-72
2023/06/19 07:01:56;;;;;;;20.52;18.52;;;20.60;99.90;;;;;;5008954;28;20048;-72
2023/06/19 07:04:22;;;;;;;20.23;18.42;;;20.60;99.90;;;;;;5026575;28;20053;-72
2023/06/19 07:06:49;;;;;;;18.85;17.15;;;20.60;99.90;;;;;;5003939;28;20124;-72
2023/06/19 07:09:15;;;;;;;18.95;17.08;;;20.60;99.90;;;;;;5026849;28;20410;-72
2023/06/19 07:11:41;;;;;;;17.35;15.82;;;20.60;99.90;;;;;;5022659;28;20480;-72
2023/06/19 07:14:10;;;;;;;15.95;14.55;;;20.60;99.90;;;;;;5006518;28;20091;-72
2023/06/19 07:16:36;;;;;;;16.58;14.90;;;20.60;99.90;;;;;;5021089;28;20501;-72
2023/06/19 07:19:01;;;;;;;13.63;12.32;;;20.70;99.90;;;;;;5029063;28;20055;-72
2023/06/19 07:21:29;;;;;;;12.70;11.05;;;20.70;99.90;;;;;;5008532;28;20045;-71
2023/06/19 07:23:56;;;;;;;11.52;10.43;;;20.70;99.90;;;;;;5027962;28;20124;-71
2023/06/19 07:26:22;;;;;;;10.48;9.55;;;20.70;99.90;;;;;;5008620;28;20098;-71
2023/06/19 07:28:47;;;;;;;10.43;9.43;;;20.70;99.90;;;;;;5004564;28;20453;-71
2023/06/19 07:31:19;;;;;;;8.80;8.00;;;20.70;99.90;;;;;;5012112;28;20706;-71
2023/06/19 07:33:45;;;;;;;9.52;8.55;;;20.70;99.90;;;;;;5001219;28;20040;-72
2023/06/19 07:36:13;;;;;;;8.38;7.15;;;20.70;99.90;;;;;;5013945;28;20132;-71
2023/06/19 07:38:40;;;;;;;8.10;6.95;;;20.70;99.90;;;;;;5013232;28;20055;-72
2023/06/19 07:41:08;;;;;;;9.35;6.38;;;20.70;99.90;;;;;;5013384;28;20072;-72
2023/06/19 07:43:34;;;;;;;8.32;6.25;;;20.60;99.90;;;;;;5008085;28;20127;-72
2023/06/19 07:46:00;;;;;;;7.82;6.38;;;20.60;99.90;;;;;;5011988;28;20132;-71
2023/06/19 07:48:26;;;;;;;7.10;6.38;;;20.60;99.90;;;;;;5011573;28;20048;-71
2023/06/19 07:50:53;;;;;;;7.15;6.45;;;20.50;99.90;;;;;;5025973;28;20057;-71
2023/06/19 07:53:19;;;;;;;7.63;6.15;;;20.50;99.90;;;;;;5012107;28;20056;-71
2023/06/19 07:55:44;;;;;;;6.93;6.13;;;20.50;99.90;;;;;;5025422;28;20696;-71
2023/06/19 07:58:10;;;;;;;6.55;5.95;;;20.50;99.90;;;;;;5010196;28;20041;-71
2023/06/19 08:00:36;;;;;;;6.43;5.80;;;20.40;99.90;;;;;;5008951;28;20049;-71
2023/06/19 08:03:02;;;;;;;6.45;4.97;;;20.40;99.90;;;;;;5007014;28;20102;-71
2023/06/19 08:05:28;;;;;;;6.88;5.22;;;20.50;99.90;;;;;;5024138;28;20045;-71
2023/06/19 08:07:53;;;;;;;6.93;5.20;;;20.50;99.90;;;;;;5011348;28;20094;-72
2023/06/19 08:10:19;;;;;;;5.55;4.95;;;20.50;99.90;;;;;;5028279;28;20044;-72
2023/06/19 08:12:45;;;;;;;6.20;5.60;;;20.50;99.90;;;;;;5010098;28;20049;-72
2023/06/19 08:15:13;;;;;;;6.60;5.93;;;20.60;99.90;;;;;;5028987;28;20513;-71
2023/06/19 08:17:40;;;;;;;6.53;5.90;;;20.60;99.90;;;;;;5026199;28;20041;-72
2023/06/19 08:20:07;;;;;;;7.22;6.53;;;20.60;99.90;;;;;;5028239;28;20124;-72
2023/06/19 08:22:33;;;;;;;6.20;5.60;;;20.60;99.90;;;;;;5011156;28;20096;-71
2023/06/19 08:24:58;;;;;;;6.18;5.45;;;20.60;99.90;;;;;;5013025;28;20053;-71
2023/06/19 08:27:25;;;;;;;6.45;4.93;;;20.60;99.90;;;;;;5024917;28;20044;-71
2023/06/19 08:29:50;;;;;;;5.80;5.10;;;20.60;99.90;;;;;;5022300;28;20390;-71
2023/06/19 08:32:16;;;;;;;5.68;4.70;;;20.60;99.90;;;;;;5008839;28;20345;-71
2023/06/19 08:34:42;;;;;;;6.72;4.60;;;20.60;99.90;;;;;;5025097;28;20048;-72
2023/06/19 08:37:08;;;;;;;5.57;5.07;;;20.50;99.90;;;;;;5005274;28;20072;-71
2023/06/19 08:39:37;;;;;;;6.22;4.68;;;20.60;99.90;;;;;;5027819;28;20145;-71
2023/06/19 08:42:07;;;;;;;6.88;5.10;;;20.50;99.90;;;;;;5025910;28;20560;-72
2023/06/19 08:44:34;;;;;;;;;;;20.50;99.90;;;;;;5012310;28;20041;-72
2023/06/19 08:47:01;;;;;;;5.78;5.07;;;20.50;99.90;;;;;;5028238;28;20416;-72
2023/06/19 08:49:30;;;;;;;7.13;5.32;;;20.50;99.90;;;;;;5009873;28;20103;-72
2023/06/19 08:51:56;;;;;;;7.97;5.35;;;20.50;99.90;;;;;;5026841;28;20491;-72
2023/06/19 08:54:22;;;;;;;6.93;5.60;;;20.50;99.90;;;;;;5011486;28;20407;-72
2023/06/19 08:56:48;;;;;;;6.90;5.78;;;20.50;99.90;;;;;;5005339;28;20044;-72
2023/06/19 08:59:17;;;;;;;6.88;6.05;;;20.50;99.90;;;;;;5039518;28;20079;-72
2023/06/19 09:01:53;;;;;;;7.82;6.30;;;20.50;99.90;;;;;;5023389;28;20473;-72
2023/06/19 09:04:27;;;;;;;8.52;6.20;;;20.60;99.90;;;;;;5025948;28;20045;-72
2023/06/19 09:06:55;;;;;;;7.57;6.78;;;20.60;99.90;;;;;;5019012;28;20586;-72
2023/06/19 09:09:23;;;;;;;8.25;6.90;;;20.70;99.90;;;;;;5025877;28;20452;-72
2023/06/19 09:12:04;;;;;;;8.48;7.63;;;20.80;99.90;;;;;;5027919;28;20054;-71
2023/06/19 09:14:34;;;;;;;8.82;7.93;;;20.90;99.90;;;;;;5023390;28;20057;-71
2023/06/19 09:17:05;;;;;;;10.63;8.32;;;21.00;99.90;;;;;;4994866;28;20547;-72
2023/06/19 09:19:31;;;;;;;9.57;8.73;;;21.00;99.90;;;;;;5010285;28;20043;-71
2023/06/19 09:22:05;;;;;;;9.57;8.63;;;21.10;99.90;;;;;;5011697;28;20132;-72
2023/06/19 09:24:40;;;;;;;9.18;8.27;;;21.10;99.90;;;;;;5027584;28;20638;-71
2023/06/19 09:27:19;;;;;;;9.63;8.65;;;21.00;99.90;;;;;;5008497;28;20051;-71
2023/06/19 09:29:49;;;;;;;10.30;8.98;;;21.00;99.90;;;;;;5010162;28;20041;-72
2023/06/19 09:32:20;;;;;;;11.73;10.52;;;21.00;99.90;;;;;;5024023;28;20131;-71
2023/06/19 09:34:46;;;;;;;12.90;11.65;;;21.00;99.90;;;;;;5024018;28;20125;-71
2023/06/19 09:37:13;;;;;;;14.20;12.75;;;21.00;99.90;;;;;;4987365;28;20049;-71
2023/06/19 09:39:40;;;;;;;16.00;14.32;;;21.00;99.90;;;;;;4985928;28;20544;-71
2023/06/19 09:42:09;;;;;;;17.33;15.68;;;21.00;99.90;;;;;;4989791;28;20042;-71
2023/06/19 09:44:48;;;;;;;17.52;15.90;;;21.00;99.90;;;;;;5005947;28;20045;-72
2023/06/19 09:47:20;;;;;;;17.27;15.47;;;20.90;99.90;;;;;;5005844;28;20050;-71
2023/06/19 09:49:54;;;;;;;12.52;11.02;;;20.90;99.90;;;;;;4985850;28;20050;-72
2023/06/19 09:52:24;;;;;;;11.93;10.65;;;20.90;99.90;;;;;;5004949;28;20073;-72
2023/06/19 09:54:52;;;;;;;14.18;11.02;;;21.00;99.90;;;;;;5004930;28;20045;-72
2023/06/19 09:57:18;;;;;;;11.63;10.40;;;21.10;99.90;;;;;;4990131;28;20124;-71
2023/06/19 09:59:49;;;;;;;11.05;10.05;;;21.10;99.90;;;;;;5003849;28;20099;-71
2023/06/19 10:02:20;;;;;;;10.77;9.80;;;21.10;99.90;;;;;;4987907;28;20106;-71
2023/06/19 10:04:50;;;;;;;13.13;11.55;;;21.10;99.90;;;;;;5001975;28;20111;-71
2023/06/19 10:07:18;;;;;;;13.23;10.35;;;21.10;99.90;;;;;;4985882;28;20029;-72
2023/06/19 10:10:06;;;;;;;11.80;10.38;;;21.10;99.90;;;;;;4966695;28;20050;-71
2023/06/19 10:12:47;;;;;;;13.38;12.18;;;21.10;99.90;;;;;;4990838;28;20113;-71
2023/06/19 10:15:16;;;;;;;13.82;12.48;;;21.10;99.90;;;;;;4986412;28;20241;-72
2023/06/19 10:18:00;;;;;;;13.80;12.40;;;21.10;99.90;;;;;;5009604;28;20103;-72
2023/06/19 10:20:38;;;;;;;11.57;10.30;;;21.00;99.90;;;;;;5022067;28;20045;-72
2023/06/19 10:23:18;;;;;;;12.80;11.45;;;21.00;99.90;;;;;;5005458;28;20033;-71
2023/06/19 10:25:54;;;;;;;12.25;10.98;;;21.00;99.90;;;;;;5006214;28;20132;-71
2023/06/19 10:28:21;;;;;;;14.00;12.80;;;21.10;99.90;;;;;;5004518;28;20052;-71
2023/06/19 10:31:05;;;;;;;13.85;12.45;;;21.10;99.90;;;;;;5006315;28;20106;-71
2023/06/19 10:33:33;;;;;;;12.95;11.65;;;21.10;99.90;;;;;;4993513;28;20243;-71
2023/06/19 10:36:13;;;;;;;13.90;12.63;;;21.20;99.90;;;;;;5015461;28;20481;-72
2023/06/19 10:38:39;;;;;;;12.60;11.30;;;21.40;99.90;;;;;;5038703;28;20067;-73
2023/06/19 10:41:04;;;;;;;12.80;11.60;;;21.50;99.90;;;;;;5004394;28;20050;-71
2023/06/19 10:43:32;;;;;;;11.00;9.80;;;21.60;99.90;;;;;;5021316;28;20045;-72
2023/06/19 10:45:59;;;;;;;11.40;10.20;;;21.60;99.90;;;;;;5024440;28;20045;-71
2023/06/19 10:48:25;;;;;;;13.50;9.98;;;21.60;99.90;;;;;;5027433;28;20049;-71
2023/06/19 10:50:51;;;;;;;11.38;10.27;;;21.60;99.90;;;;;;5025704;28;20459;-72
2023/06/19 10:53:28;;;;;;;12.10;8.82;;;21.50;99.90;;;;;;5008930;28;20501;-71
2023/06/19 10:56:02;;;;;;;11.68;10.25;;;21.60;99.90;;;;;;5020926;28;20068;-72
2023/06/19 10:58:29;;;;;;;11.38;10.15;;;21.60;99.90;;;;;;5025038;28;20131;-72
2023/06/19 11:00:56;;;;;;;12.23;10.95;;;21.60;99.90;;;;;;5029710;28;20132;-72
2023/06/19 11:03:22;;;;;;;11.43;10.38;;;21.70;99.90;;;;;;5009599;28;20041;-72
2023/06/19 11:05:48;;;;;;;12.30;10.95;;;21.80;99.90;;;;;;4989390;28;20500;-72
2023/06/19 11:08:22;;;;;;;11.32;10.20;;;21.80;99.90;;;;;;5042759;28;20095;-72
2023/06/19 11:10:49;;;;;;;11.07;10.07;;;21.90;99.90;;;;;;5040076;28;20045;-71
2023/06/19 11:13:17;;;;;;;11.98;10.38;;;22.00;99.90;;;;;;5006689;28;20041;-72
2023/06/19 11:15:44;;;;;;;12.98;11.68;;;22.20;99.90;;;;;;5006754;28;20115;-72
2023/06/19 11:18:10;;;;;;;12.30;11.00;;;22.20;99.90;;;;;;5024533;28;20078;-71
2023/06/19 11:20:50;;;;;;;12.82;11.63;;;22.30;99.90;;;;;;4994516;28;20041;-71
2023/06/19 11:23:24;;;;;;;10.43;9.43;;;22.30;99.90;;;;;;5007975;28;21195;-71
2023/06/19 11:25:50;;;;;;;10.85;9.18;;;22.40;99.90;;;;;;5042454;28;20055;-71
2023/06/19 11:28:23;;;;;;;9.88;8.40;;;22.70;99.90;;;;;;5007542;28;20036;-72
2023/06/19 11:31:02;;;;;;;10.55;8.27;;;22.80;99.90;;;;;;5005803;28;20524;-71
2023/06/19 11:33:29;;;;;;;10.30;8.27;;;22.80;99.90;;;;;;5008224;28;20053;-71
2023/06/19 11:35:59;;;;;;;9.55;8.55;;;22.90;99.90;;;;;;5012507;28;20060;-71
2023/06/19 11:38:26;;;;;;;8.77;7.75;;;23.20;99.90;;;;;;4988933;28;20438;-71
2023/06/19 11:40:57;;;;;;;9.50;8.52;;;23.30;99.90;;;;;;4988988;28;20524;-71
2023/06/19 11:43:30;;;;;;;11.13;10.02;;;23.40;99.90;;;;;;5005641;28;20037;-72
2023/06/19 11:46:07;;;;;;;11.82;10.13;;;23.50;99.90;;;;;;5004546;28;20050;-72
2023/06/19 11:48:36;;;;;;;13.48;10.68;;;23.50;99.90;;;;;;5021040;28;20045;-71
2023/06/19 11:51:03;;;;;;;14.32;11.63;;;23.30;99.90;;;;;;4987600;28;20056;-72
2023/06/19 11:53:29;;;;;;;12.93;10.93;;;23.20;99.90;;;;;;4984030;28;20045;-72
2023/06/19 11:55:55;;;;;;;13.45;12.15;;;23.30;99.90;;;;;;5005804;28;20057;-71
2023/06/19 11:58:21;;;;;;;13.60;12.20;;;23.40;99.90;;;;;;5002035;28;20703;-72
2023/06/19 12:00:48;;;;;;;13.40;11.43;;;23.50;99.90;;;;;;4996062;28;20116;-72
2023/06/19 12:03:14;;;;;;;12.25;10.95;;;23.60;99.90;;;;;;5003113;28;20449;-72
2023/06/19 12:05:40;;;;;;;11.45;10.25;;;23.70;99.90;;;;;;4982981;28;20049;-71
2023/06/19 12:08:06;;;;;;;11.98;10.73;;;23.70;99.90;;;;;;5009197;28;20127;-71
2023/06/19 12:10:33;;;;;;;13.27;12.02;;;23.70;99.90;;;;;;5007331;28;20049;-71
2023/06/19 12:12:59;;;;;;;14.15;12.82;;;23.60;99.90;;;;;;5007369;28;20116;-71
2023/06/19 12:15:25;;;;;;;12.90;11.70;;;23.70;99.90;;;;;;4957994;28;20129;-71
2023/06/19 12:17:51;;;;;;;15.60;11.80;;;23.90;99.90;;;;;;4957801;28;20524;-71
2023/06/19 12:20:18;;;;;;;12.40;11.10;;;24.00;99.90;;;;;;5006333;28;20048;-72
2023/06/19 12:22:44;;;;;;;12.23;11.13;;;23.90;99.90;;;;;;5010557;28;20053;-71
2023/06/19 12:25:10;;;;;;;14.52;11.15;;;23.80;99.90;;;;;;5008412;28;21639;-71
2023/06/19 12:27:40;;;;;;;15.45;11.15;;;23.70;99.90;;;;;;4998569;28;20463;-71
2023/06/19 12:30:07;;;;;;;13.45;12.10;;;23.70;99.90;;;;;;5008180;28;20537;-72
2023/06/19 12:32:33;;;;;;;13.77;12.18;;;23.60;99.90;;;;;;4990374;28;20288;-72
2023/06/19 12:34:59;;;;;;;11.27;10.18;;;23.50;99.90;;;;;;5006409;28;20140;-70
2023/06/19 12:37:25;;;;;;;10.85;9.75;;;23.40;99.90;;;;;;5041104;28;20053;-71
2023/06/19 12:39:51;;;;;;;11.18;10.07;;;23.40;99.90;;;;;;5007032;28;20402;-71
2023/06/19 12:42:17;;;;;;;12.00;10.57;;;23.60;99.90;;;;;;5040590;28;20106;-71